Terminal Aerodrome Forecast
Issued by NWS Tiyan, Guam

Current Version | Previous Version | Text Only | Print | Product List | Glossary On
Versions: 1 2 3 4 5 6 7 8 9 10 11 12 13 14 15
000
FTPQ31 PGUM 251129
TAFGUM
TAF
PGUM 251129Z 2512/2618 10007KT P6SM VCTS SCT015CB SCT040 BKN100
      TEMPO 2512/2516 5SM -TSRA BKN014CB OVC050
     FM252000 15010KT P6SM VCSH SCT015 SCT030 BKN100=

USA.gov is the U.S. government's official web portal to all federal, state and local government web resources and services.